sensor_id;sensor_type;location;lat;lon;timestamp;pressure;altitude;pressure_sealevel;temperature;humidity
11001;BME280;5553;48.506;8.870;2023-05-10T00:01:55;96235.56;;;11.63;100.00
11001;BME280;5553;48.506;8.870;2023-05-10T00:04:23;96236.34;;;11.63;100.00
11001;BME280;5553;48.506;8.870;2023-05-10T00:06:52;96243.06;;;11.59;100.00
11001;BME280;5553;48.506;8.870;2023-05-10T00:09:21;96248.53;;;11.58;100.00
11001;BME280;5553;48.506;8.870;2023-05-10T00:11:51;96256.69;;;11.56;100.00
11001;BME280;5553;48.506;8.870;2023-05-10T00:14:20;96254.63;;;11.52;100.00
11001;BME280;5553;48.506;8.870;2023-05-10T00:16:48;96258.31;;;11.51;100.00
11001;BME280;5553;48.506;8.870;2023-05-10T00:19:16;96262.16;;;11.48;100.00
11001;BME280;5553;48.506;8.870;2023-05-10T00:21:44;96255.88;;;11.43;100.00
11001;BME280;5553;48.506;8.870;2023-05-10T00:24:13;96260.75;;;11.39;100.00
11001;BME280;5553;48.506;8.870;2023-05-10T00:26:41;96256.69;;;11.36;100.00
11001;BME280;5553;48.506;8.870;2023-05-10T00:29:12;96255.88;;;11.36;100.00
11001;BME280;5553;48.506;8.870;2023-05-10T00:31:40;96255.47;;;11.32;100.00
11001;BME280;5553;48.506;8.870;2023-05-10T00:34:09;96253.22;;;11.29;100.00
11001;BME280;5553;48.506;8.870;2023-05-10T00:36:37;96262.75;;;11.30;100.00
11001;BME280;5553;48.506;8.870;2023-05-10T00:39:05;96262.16;;;11.28;100.00
11001;BME280;5553;48.506;8.870;2023-05-10T00:41:34;96266.81;;;11.26;100.00
11001;BME280;5553;48.506;8.870;2023-05-10T00:44:02;96271.28;;;11.26;100.00
11001;BME280;5553;48.506;8.870;2023-05-10T00:46:33;96270.88;;;11.22;100.00
11001;BME280;5553;48.506;8.870;2023-05-10T00:49:01;96276.97;;;11.23;100.00
11001;BME280;5553;48.506;8.870;2023-05-10T00:51:30;96279.19;;;11.19;100.00
11001;BME280;5553;48.506;8.870;2023-05-10T00:53:59;96274.94;;;11.18;100.00
11001;BME280;5553;48.506;8.870;2023-05-10T00:56:27;96271.06;;;11.21;100.00
11001;BME280;5553;48.506;8.870;2023-05-10T00:58:56;96269.25;;;11.21;100.00
11001;BME280;5553;48.506;8.870;2023-05-10T01:01:24;96264.38;;;11.18;100.00
11001;BME280;5553;48.506;8.870;2023-05-10T01:03:55;96266.41;;;11.16;100.00
11001;BME280;5553;48.506;8.870;2023-05-10T01:06:24;96270.47;;;11.12;100.00
11001;BME280;5553;48.506;8.870;2023-05-10T01:08:53;96270.84;;;11.09;100.00
11001;BME280;5553;48.506;8.870;2023-05-10T01:11:21;96252.16;;;11.04;100.00
11001;BME280;5553;48.506;8.870;2023-05-10T01:13:54;96239.56;;;10.99;100.00
11001;BME280;5553;48.506;8.870;2023-05-10T01:16:23;96231.03;;;10.97;100.00
11001;BME280;5553;48.506;8.870;2023-05-10T01:18:55;96220.06;;;10.94;100.00
11001;BME280;5553;48.506;8.870;2023-05-10T01:21:29;96225.72;;;10.90;100.00
11001;BME280;5553;48.506;8.870;2023-05-10T01:24:37;96215.16;;;10.90;100.00
11001;BME280;5553;48.506;8.870;2023-05-10T01:27:17;96209.09;;;10.90;100.00
11001;BME280;5553;48.506;8.870;2023-05-10T01:30:05;96209.91;;;10.84;100.00
11001;BME280;5553;48.506;8.870;2023-05-10T01:32:43;96207.06;;;10.85;100.00
11001;BME280;5553;48.506;8.870;2023-05-10T01:35:17;96204.22;;;10.80;100.00
11001;BME280;5553;48.506;8.870;2023-05-10T01:37:52;96200.97;;;10.85;100.00
11001;BME280;5553;48.506;8.870;2023-05-10T01:40:26;96196.31;;;10.80;100.00
11001;BME280;5553;48.506;8.870;2023-05-10T01:43:01;96195.28;;;10.81;100.00
11001;BME280;5553;48.506;8.870;2023-05-10T01:45:34;96197.09;;;10.81;100.00
11001;BME280;5553;48.506;8.870;2023-05-10T01:48:09;96209.88;;;10.77;100.00
11001;BME280;5553;48.506;8.870;2023-05-10T01:50:43;96207.25;;;10.77;100.00
11001;BME280;5553;48.506;8.870;2023-05-10T01:53:17;96215.97;;;10.78;100.00
11001;BME280;5553;48.506;8.870;2023-05-10T01:55:49;96211.91;;;10.75;100.00
11001;BME280;5553;48.506;8.870;2023-05-10T01:58:22;96219.00;;;10.75;100.00
11001;BME280;5553;48.506;8.870;2023-05-10T02:00:52;96234.22;;;10.73;100.00
11001;BME280;5553;48.506;8.870;2023-05-10T02:03:25;96235.44;;;10.70;100.00
11001;BME280;5553;48.506;8.870;2023-05-10T02:05:54;96232.59;;;10.72;100.00
11001;BME280;5553;48.506;8.870;2023-05-10T02:08:23;96244.34;;;10.69;100.00
11001;BME280;5553;48.506;8.870;2023-05-10T02:10:55;96233.38;;;10.65;100.00
11001;BME280;5553;48.506;8.870;2023-05-10T02:13:25;96249.03;;;10.67;100.00
11001;BME280;5553;48.506;8.870;2023-05-10T02:15:54;96251.66;;;10.67;100.00
11001;BME280;5553;48.506;8.870;2023-05-10T02:18:26;96248.81;;;10.68;100.00
11001;BME280;5553;48.506;8.870;2023-05-10T02:20:56;96248.41;;;10.65;100.00
11001;BME280;5553;48.506;8.870;2023-05-10T02:23:26;96245.13;;;10.63;100.00
11001;BME280;5553;48.506;8.870;2023-05-10T02:25:54;96248.19;;;10.60;100.00
11001;BME280;5553;48.506;8.870;2023-05-10T02:28:24;96246.13;;;10.55;100.00
11001;BME280;5553;48.506;8.870;2023-05-10T02:30:54;96243.50;;;10.55;100.00
11001;BME280;5553;48.506;8.870;2023-05-10T02:33:26;96236.19;;;10.51;100.00
11001;BME280;5553;48.506;8.870;2023-05-10T02:35:56;96241.47;;;10.51;100.00
11001;BME280;5553;48.506;8.870;2023-05-10T02:38:25;96241.06;;;10.54;100.00
11001;BME280;5553;48.506;8.870;2023-05-10T02:40:55;96242.06;;;10.53;100.00
11001;BME280;5553;48.506;8.870;2023-05-10T02:43:24;96253.22;;;10.55;100.00
11001;BME280;5553;48.506;8.870;2023-05-10T02:45:53;96240.84;;;10.55;100.00
11001;BME280;5553;48.506;8.870;2023-05-10T02:48:22;96240.44;;;10.52;100.00
11001;BME280;5553;48.506;8.870;2023-05-10T02:50:54;96245.56;;;10.60;100.00
11001;BME280;5553;48.506;8.870;2023-05-10T02:53:31;96245.13;;;10.63;100.00
11001;BME280;5553;48.506;8.870;2023-05-10T02:56:04;96246.78;;;10.64;100.00
11001;BME280;5553;48.506;8.870;2023-05-10T02:58:33;96259.97;;;10.64;100.00
11001;BME280;5553;48.506;8.870;2023-05-10T03:01:02;96253.25;;;10.61;100.00
11001;BME280;5553;48.506;8.870;2023-05-10T03:03:30;96255.09;;;10.61;100.00
11001;BME280;5553;48.506;8.870;2023-05-10T03:06:01;96248.00;;;10.61;100.00
11001;BME280;5553;48.506;8.870;2023-05-10T03:08:29;96257.72;;;10.61;100.00
11001;BME280;5553;48.506;8.870;2023-05-10T03:11:13;96251.44;;;10.62;100.00
11001;BME280;5553;48.506;8.870;2023-05-10T03:13:49;96255.09;;;10.61;100.00
11001;BME280;5553;48.506;8.870;2023-05-10T03:16:25;96249.00;;;10.60;100.00
11001;BME280;5553;48.506;8.870;2023-05-10T03:19:02;96247.56;;;10.58;100.00
11001;BME280;5553;48.506;8.870;2023-05-10T03:21:38;96248.34;;;10.52;100.00
11001;BME280;5553;48.506;8.870;2023-05-10T03:24:12;96262.13;;;10.47;100.00
11001;BME280;5553;48.506;8.870;2023-05-10T03:26:43;96255.66;;;10.50;100.00
11001;BME280;5553;48.506;8.870;2023-05-10T03:29:12;96252.00;;;10.51;100.00
11001;BME280;5553;48.506;8.870;2023-05-10T03:31:42;96256.91;;;10.54;100.00
11001;BME280;5553;48.506;8.870;2023-05-10T03:34:10;96259.16;;;10.57;100.00
11001;BME280;5553;48.506;8.870;2023-05-10T03:36:41;96256.13;;;10.60;100.00
11001;BME280;5553;48.506;8.870;2023-05-10T03:39:09;96258.75;;;10.60;100.00
11001;BME280;5553;48.506;8.870;2023-05-10T03:41:38;96254.69;;;10.57;100.00
11001;BME280;5553;48.506;8.870;2023-05-10T03:44:06;96250.38;;;10.56;100.00
11001;BME280;5553;48.506;8.870;2023-05-10T03:46:35;96252.03;;;10.57;100.00
11001;BME280;5553;48.506;8.870;2023-05-10T03:49:03;96242.69;;;10.55;100.00
11001;BME280;5553;48.506;8.870;2023-05-10T03:51:31;96249.56;;;10.56;100.00
11001;BME280;5553;48.506;8.870;2023-05-10T03:54:02;96247.75;;;10.56;100.00
11001;BME280;5553;48.506;8.870;2023-05-10T03:56:30;96247.97;;;10.55;100.00
11001;BME280;5553;48.506;8.870;2023-05-10T03:58:59;96239.25;;;10.54;100.00
11001;BME280;5553;48.506;8.870;2023-05-10T04:01:32;96241.06;;;10.54;100.00
11001;BME280;5553;48.506;8.870;2023-05-10T04:04:01;96247.34;;;10.53;100.00
11001;BME280;5553;48.506;8.870;2023-05-10T04:06:29;96240.25;;;10.53;100.00
11001;BME280;5553;48.506;8.870;2023-05-10T04:08:57;96247.53;;;10.51;100.00
11001;BME280;5553;48.506;8.870;2023-05-10T04:11:31;96251.81;;;10.52;100.00
11001;BME280;5553;48.506;8.870;2023-05-10T04:14:00;96258.91;;;10.52;100.00
11001;BME280;5553;48.506;8.870;2023-05-10T04:16:28;96264.19;;;10.52;100.00
11001;BME280;5553;48.506;8.870;2023-05-10T04:18:56;96272.09;;;10.52;100.00
11001;BME280;5553;48.506;8.870;2023-05-10T04:21:25;96278.19;;;10.52;100.00
11001;BME280;5553;48.506;8.870;2023-05-10T04:23:53;96280.81;;;10.52;100.00
11001;BME280;5553;48.506;8.870;2023-05-10T04:26:22;96281.63;;;10.53;100.00
11001;BME280;5553;48.506;8.870;2023-05-10T04:28:52;96284.88;;;10.55;100.00
11001;BME280;5553;48.506;8.870;2023-05-10T04:31:21;96286.50;;;10.56;100.00
11001;BME280;5553;48.506;8.870;2023-05-10T04:33:49;96285.31;;;10.58;100.00
11001;BME280;5553;48.506;8.870;2023-05-10T04:36:17;96293.03;;;10.60;100.00
11001;BME280;5553;48.506;8.870;2023-05-10T04:38:46;96287.94;;;10.58;100.00
11001;BME280;5553;48.506;8.870;2023-05-10T04:41:14;96295.09;;;10.64;100.00
11001;BME280;5553;48.506;8.870;2023-05-10T04:43:42;96294.28;;;10.64;100.00
11001;BME280;5553;48.506;8.870;2023-05-10T04:46:13;96289.81;;;10.64;100.00
11001;BME280;5553;48.506;8.870;2023-05-10T04:48:42;96288.59;;;10.67;100.00
11001;BME280;5553;48.506;8.870;2023-05-10T04:51:10;96298.78;;;10.70;100.00
11001;BME280;5553;48.506;8.870;2023-05-10T04:53:39;96297.13;;;10.69;100.00
11001;BME280;5553;48.506;8.870;2023-05-10T04:56:07;96301.97;;;10.65;100.00
11001;BME280;5553;48.506;8.870;2023-05-10T04:58:35;96308.88;;;10.66;100.00
11001;BME280;5553;48.506;8.870;2023-05-10T05:01:07;96306.44;;;10.65;100.00
11001;BME280;5553;48.506;8.870;2023-05-10T05:03:38;96311.09;;;10.63;100.00
11001;BME280;5553;48.506;8.870;2023-05-10T05:06:07;96313.97;;;10.68;100.00
11001;BME280;5553;48.506;8.870;2023-05-10T05:08:36;96317.22;;;10.63;100.00
11001;BME280;5553;48.506;8.870;2023-05-10T05:11:04;96325.53;;;10.67;100.00
11001;BME280;5553;48.506;8.870;2023-05-10T05:13:32;96330.59;;;10.68;100.00
11001;BME280;5553;48.506;8.870;2023-05-10T05:16:01;96327.78;;;10.70;100.00
11001;BME280;5553;48.506;8.870;2023-05-10T05:18:30;96329.59;;;10.70;100.00
11001;BME280;5553;48.506;8.870;2023-05-10T05:21:01;96335.09;;;10.75;100.00
11001;BME280;5553;48.506;8.870;2023-05-10T05:23:29;96335.28;;;10.73;100.00
11001;BME280;5553;48.506;8.870;2023-05-10T05:25:58;96345.84;;;10.73;100.00
11001;BME280;5553;48.506;8.870;2023-05-10T05:28:26;96342.41;;;10.73;100.00
11001;BME280;5553;48.506;8.870;2023-05-10T05:30:58;96355.63;;;10.79;100.00
11001;BME280;5553;48.506;8.870;2023-05-10T05:33:26;96348.13;;;10.83;100.00
11001;BME280;5553;48.506;8.870;2023-05-10T05:35:55;96347.56;;;10.87;100.00
11001;BME280;5553;48.506;8.870;2023-05-10T05:38:25;96352.41;;;10.90;100.00
11001;BME280;5553;48.506;8.870;2023-05-10T05:40:54;96356.31;;;10.95;100.00
11001;BME280;5553;48.506;8.870;2023-05-10T05:43:22;96353.28;;;10.98;100.00
11001;BME280;5553;48.506;8.870;2023-05-10T05:45:52;96352.25;;;10.99;100.00
11001;BME280;5553;48.506;8.870;2023-05-10T05:48:21;96354.53;;;11.08;100.00
11001;BME280;5553;48.506;8.870;2023-05-10T05:50:49;96346.59;;;11.02;100.00
11001;BME280;5553;48.506;8.870;2023-05-10T05:53:17;96344.13;;;11.00;100.00
11001;BME280;5553;48.506;8.870;2023-05-10T05:55:53;96329.69;;;10.96;100.00
11001;BME280;5553;48.506;8.870;2023-05-10T05:58:22;96333.38;;;11.02;100.00
11001;BME280;5553;48.506;8.870;2023-05-10T06:00:51;96325.06;;;11.05;100.00
11001;BME280;5553;48.506;8.870;2023-05-10T06:03:19;96311.88;;;11.05;100.00
11001;BME280;5553;48.506;8.870;2023-05-10T06:05:48;96313.31;;;11.14;100.00
11001;BME280;5553;48.506;8.870;2023-05-10T06:08:16;96308.84;;;11.08;100.00
11001;BME280;5553;48.506;8.870;2023-05-10T06:10:45;96296.25;;;11.17;100.00
11001;BME280;5553;48.506;8.870;2023-05-10T06:13:16;96293.84;;;11.22;100.00
11001;BME280;5553;48.506;8.870;2023-05-10T06:15:44;96292.22;;;11.27;100.00
11001;BME280;5553;48.506;8.870;2023-05-10T06:18:12;96295.25;;;11.31;100.00
11001;BME280;5553;48.506;8.870;2023-05-10T06:20:41;96290.59;;;11.33;100.00
11001;BME280;5553;48.506;8.870;2023-05-10T06:23:10;96287.75;;;11.34;100.00
11001;BME280;5553;48.506;8.870;2023-05-10T06:25:38;96288.78;;;11.40;100.00
11001;BME280;5553;48.506;8.870;2023-05-10T06:28:06;96285.09;;;11.34;100.00
11001;BME280;5553;48.506;8.870;2023-05-10T06:30:38;96283.88;;;11.30;100.00
11001;BME280;5553;48.506;8.870;2023-05-10T06:33:06;96282.88;;;11.18;100.00
11001;BME280;5553;48.506;8.870;2023-05-10T06:35:34;96269.03;;;11.16;100.00
11001;BME280;5553;48.506;8.870;2023-05-10T06:38:02;96267.19;;;11.10;100.00
11001;BME280;5553;48.506;8.870;2023-05-10T06:40:31;96265.19;;;11.12;100.00
11001;BME280;5553;48.506;8.870;2023-05-10T06:42:59;96269.22;;;11.01;100.00
11001;BME280;5553;48.506;8.870;2023-05-10T06:45:27;96260.28;;;11.02;100.00
11001;BME280;5553;48.506;8.870;2023-05-10T06:47:58;96262.13;;;11.02;100.00
11001;BME280;5553;48.506;8.870;2023-05-10T06:50:26;96268.00;;;11.04;100.00
11001;BME280;5553;48.506;8.870;2023-05-10T06:52:55;96268.22;;;11.09;100.00
11001;BME280;5553;48.506;8.870;2023-05-10T06:55:23;96278.97;;;11.14;100.00
11001;BME280;5553;48.506;8.870;2023-05-10T06:57:51;96271.47;;;11.24;100.00
11001;BME280;5553;48.506;8.870;2023-05-10T07:00:20;96268.81;;;11.11;100.00
11001;BME280;5553;48.506;8.870;2023-05-10T07:02:48;96265.22;;;11.25;100.00
11001;BME280;5553;48.506;8.870;2023-05-10T07:05:19;96266.03;;;11.32;100.00
11001;BME280;5553;48.506;8.870;2023-05-10T07:07:47;96272.53;;;11.36;100.00
11001;BME280;5553;48.506;8.870;2023-05-10T07:10:16;96265.81;;;11.34;100.00
11001;BME280;5553;48.506;8.870;2023-05-10T07:12:45;96263.56;;;11.37;100.00
11001;BME280;5553;48.506;8.870;2023-05-10T07:15:13;96254.03;;;11.36;100.00
11001;BME280;5553;48.506;8.870;2023-05-10T07:17:41;96259.31;;;11.50;100.00
11001;BME280;5553;48.506;8.870;2023-05-10T07:20:11;96254.22;;;11.55;100.00
11001;BME280;5553;48.506;8.870;2023-05-10T07:22:42;96242.44;;;11.64;100.00
11001;BME280;5553;48.506;8.870;2023-05-10T07:25:10;96244.47;;;11.75;100.00
11001;BME280;5553;48.506;8.870;2023-05-10T07:27:39;96241.63;;;11.70;100.00
11001;BME280;5553;48.506;8.870;2023-05-10T07:30:08;96238.00;;;11.84;100.00
11001;BME280;5553;48.506;8.870;2023-05-10T07:32:36;96222.28;;;11.96;100.00
11001;BME280;5553;48.506;8.870;2023-05-10T07:35:08;96212.09;;;12.13;100.00
11001;BME280;5553;48.506;8.870;2023-05-10T07:37:36;96210.06;;;12.08;100.00
11001;BME280;5553;48.506;8.870;2023-05-10T07:40:08;96204.56;;;12.17;100.00
11001;BME280;5553;48.506;8.870;2023-05-10T07:42:37;96202.28;;;12.20;100.00
11001;BME280;5553;48.506;8.870;2023-05-10T07:45:06;96201.63;;;12.45;100.00
11001;BME280;5553;48.506;8.870;2023-05-10T07:47:35;96199.59;;;12.33;100.00
11001;BME280;5553;48.506;8.870;2023-05-10T07:50:04;96195.81;;;12.61;100.00
11001;BME280;5553;48.506;8.870;2023-05-10T07:52:32;96184.66;;;12.59;100.00
11001;BME280;5553;48.506;8.870;2023-05-10T07:55:01;96180.44;;;12.51;100.00
11001;BME280;5553;48.506;8.870;2023-05-10T07:57:32;96170.41;;;12.53;100.00
11001;BME280;5553;48.506;8.870;2023-05-10T08:00:00;96166.47;;;12.69;100.00
11001;BME280;5553;48.506;8.870;2023-05-10T08:02:28;96168.00;;;12.84;100.00
11001;BME280;5553;48.506;8.870;2023-05-10T08:04:57;96159.72;;;13.05;100.00
11001;BME280;5553;48.506;8.870;2023-05-10T08:07:25;96159.75;;;12.98;100.00
11001;BME280;5553;48.506;8.870;2023-05-10T08:09:53;96163.00;;;13.32;100.00
11001;BME280;5553;48.506;8.870;2023-05-10T08:12:21;96163.72;;;13.14;100.00
11001;BME280;5553;48.506;8.870;2023-05-10T08:14:52;96161.31;;;12.81;100.00
11001;BME280;5553;48.506;8.870;2023-05-10T08:17:21;96167.41;;;13.13;100.00
11001;BME280;5553;48.506;8.870;2023-05-10T08:19:49;96155.09;;;13.25;100.00
11001;BME280;5553;48.506;8.870;2023-05-10T08:22:17;96143.50;;;12.95;100.00
11001;BME280;5553;48.506;8.870;2023-05-10T08:24:45;96144.50;;;13.25;100.00
11001;BME280;5553;48.506;8.870;2023-05-10T08:27:13;96141.25;;;13.23;100.00
11001;BME280;5553;48.506;8.870;2023-05-10T08:29:42;96125.13;;;13.00;100.00
11001;BME280;5553;48.506;8.870;2023-05-10T08:32:13;96133.94;;;13.19;100.00
11001;BME280;5553;48.506;8.870;2023-05-10T08:34:41;96144.72;;;13.49;100.00
11001;BME280;5553;48.506;8.870;2023-05-10T08:37:09;96136.25;;;13.40;100.00
11001;BME280;5553;48.506;8.870;2023-05-10T08:39:38;96134.28;;;13.72;100.00
11001;BME280;5553;48.506;8.870;2023-05-10T08:42:07;96137.22;;;14.01;100.00
11001;BME280;5553;48.506;8.870;2023-05-10T08:44:36;96130.13;;;14.32;100.00
11001;BME280;5553;48.506;8.870;2023-05-10T08:47:06;96129.84;;;14.21;100.00
11001;BME280;5553;48.506;8.870;2023-05-10T08:49:37;96123.97;;;14.19;100.00
11001;BME280;5553;48.506;8.870;2023-05-10T08:52:05;96125.00;;;14.00;100.00
11001;BME280;5553;48.506;8.870;2023-05-10T08:54:35;96131.34;;;13.81;100.00
11001;BME280;5553;48.506;8.870;2023-05-10T08:57:04;96136.78;;;14.04;100.00
11001;BME280;5553;48.506;8.870;2023-05-10T08:59:32;96146.88;;;14.14;100.00
11001;BME280;5553;48.506;8.870;2023-05-10T09:02:01;96132.66;;;14.27;100.00
11001;BME280;5553;48.506;8.870;2023-05-10T09:04:30;96139.91;;;14.50;100.00
11001;BME280;5553;48.506;8.870;2023-05-10T09:07:01;96127.81;;;14.35;100.00
11001;BME280;5553;48.506;8.870;2023-05-10T09:09:31;96141.34;;;14.94;100.00
11001;BME280;5553;48.506;8.870;2023-05-10T09:11:59;96125.97;;;14.84;100.00
11001;BME280;5553;48.506;8.870;2023-05-10T09:14:28;96126.13;;;14.41;100.00
11001;BME280;5553;48.506;8.870;2023-05-10T09:16:56;96128.34;;;14.44;100.00
11001;BME280;5553;48.506;8.870;2023-05-10T09:19:25;96135.66;;;14.30;100.00
11001;BME280;5553;48.506;8.870;2023-05-10T09:21:53;96124.81;;;14.32;100.00
11001;BME280;5553;48.506;8.870;2023-05-10T09:24:29;96141.38;;;14.64;100.00
11001;BME280;5553;48.506;8.870;2023-05-10T09:26:58;96120.09;;;14.34;100.00
11001;BME280;5553;48.506;8.870;2023-05-10T09:29:26;96125.00;;;14.00;100.00
11001;BME280;5553;48.506;8.870;2023-05-10T09:32:06;96133.03;;;13.93;100.00
11001;BME280;5553;48.506;8.870;2023-05-10T09:34:34;96132.66;;;13.71;100.00
11001;BME280;5553;48.506;8.870;2023-05-10T09:37:05;96139.81;;;13.71;100.00
11001;BME280;5553;48.506;8.870;2023-05-10T09:39:37;96139.22;;;13.50;100.00
11001;BME280;5553;48.506;8.870;2023-05-10T09:42:08;96172.34;;;13.35;100.00
11001;BME280;5553;48.506;8.870;2023-05-10T09:44:36;96168.47;;;13.37;100.00
11001;BME280;5553;48.506;8.870;2023-05-10T09:47:06;96180.78;;;13.25;100.00
11001;BME280;5553;48.506;8.870;2023-05-10T09:49:34;96180.97;;;13.23;100.00
11001;BME280;5553;48.506;8.870;2023-05-10T09:52:04;96188.41;;;13.08;100.00
11001;BME280;5553;48.506;8.870;2023-05-10T09:54:33;96185.72;;;13.15;100.00
11001;BME280;5553;48.506;8.870;2023-05-10T09:57:04;96192.19;;;13.25;100.00
11001;BME280;5553;48.506;8.870;2023-05-10T09:59:33;96185.31;;;13.43;100.00
11001;BME280;5553;48.506;8.870;2023-05-10T10:02:01;96182.63;;;13.24;100.00
11001;BME280;5553;48.506;8.870;2023-05-10T10:04:30;96173.44;;;13.70;100.00
11001;BME280;5553;48.506;8.870;2023-05-10T10:07:00;96162.88;;;13.89;100.00
11001;BME280;5553;48.506;8.870;2023-05-10T10:09:28;96149.03;;;14.05;100.00
11001;BME280;5553;48.506;8.870;2023-05-10T10:11:57;96155.91;;;14.61;100.00
11001;BME280;5553;48.506;8.870;2023-05-10T10:14:28;96147.47;;;14.46;100.00
11001;BME280;5553;48.506;8.870;2023-05-10T10:16:57;96138.94;;;14.62;100.00
11001;BME280;5553;48.506;8.870;2023-05-10T10:19:28;96132.25;;;14.60;100.00
11001;BME280;5553;48.506;8.870;2023-05-10T10:21:56;96128.34;;;14.44;100.00
11001;BME280;5553;48.506;8.870;2023-05-10T10:24:25;96136.28;;;14.62;100.00
11001;BME280;5553;48.506;8.870;2023-05-10T10:26:55;96150.78;;;14.90;100.00
11001;BME280;5553;48.506;8.870;2023-05-10T10:29:36;96135.25;;;14.63;100.00
11001;BME280;5553;48.506;8.870;2023-05-10T10:32:12;96150.78;;;14.90;100.00
11001;BME280;5553;48.506;8.870;2023-05-10T10:34:47;96134.41;;;14.14;100.00
11001;BME280;5553;48.506;8.870;2023-05-10T10:37:15;96151.38;;;14.13;100.00
11001;BME280;5553;48.506;8.870;2023-05-10T10:39:44;96169.91;;;13.58;100.00
11001;BME280;5553;48.506;8.870;2023-05-10T10:42:12;96154.88;;;12.95;100.00
11001;BME280;5553;48.506;8.870;2023-05-10T10:44:43;96153.63;;;12.73;100.00
11001;BME280;5553;48.506;8.870;2023-05-10T10:47:29;96151.47;;;12.56;100.00
11001;BME280;5553;48.506;8.870;2023-05-10T10:50:06;96158.16;;;12.27;100.00
11001;BME280;5553;48.506;8.870;2023-05-10T10:52:36;96168.75;;;12.21;100.00
11001;BME280;5553;48.506;8.870;2023-05-10T10:55:06;96171.63;;;12.13;100.00
11001;BME280;5553;48.506;8.870;2023-05-10T10:57:47;96179.97;;;12.03;100.00
11001;BME280;5553;48.506;8.870;2023-05-10T11:00:24;96178.59;;;12.00;100.00
11001;BME280;5553;48.506;8.870;2023-05-10T11:02:54;96181.59;;;12.11;100.00
11001;BME280;5553;48.506;8.870;2023-05-10T11:08:16;96185.78;;;12.31;100.00
11001;BME280;5553;48.506;8.870;2023-05-10T11:10:53;96196.06;;;12.53;100.00
11001;BME280;5553;48.506;8.870;2023-05-10T11:13:32;96205.72;;;12.79;100.00
11001;BME280;5553;48.506;8.870;2023-05-10T11:16:17;96195.41;;;12.64;100.00
11001;BME280;5553;48.506;8.870;2023-05-10T11:18:58;96196.84;;;12.60;100.00
11001;BME280;5553;48.506;8.870;2023-05-10T11:21:27;96211.94;;;12.53;100.00
11001;BME280;5553;48.506;8.870;2023-05-10T11:23:57;96216.44;;;12.52;100.00
11001;BME280;5553;48.506;8.870;2023-05-10T11:26:31;96221.81;;;12.32;100.00
11001;BME280;5553;48.506;8.870;2023-05-10T11:29:00;96230.88;;;11.85;100.00
11001;BME280;5553;48.506;8.870;2023-05-10T11:31:32;96236.75;;;11.67;100.00
11001;BME280;5553;48.506;8.870;2023-05-10T11:34:01;96238.38;;;11.81;100.00
11001;BME280;5553;48.506;8.870;2023-05-10T11:36:33;96247.75;;;11.84;100.00
11001;BME280;5553;48.506;8.870;2023-05-10T11:39:02;96255.81;;;12.22;100.00
11001;BME280;5553;48.506;8.870;2023-05-10T11:41:31;96249.75;;;12.08;100.00
11001;BME280;5553;48.506;8.870;2023-05-10T11:43:59;96240.72;;;12.36;100.00
11001;BME280;5553;48.506;8.870;2023-05-10T11:46:28;96231.38;;;12.20;100.00
11001;BME280;5553;48.506;8.870;2023-05-10T11:49:00;96221.88;;;12.06;100.00
11001;BME280;5553;48.506;8.870;2023-05-10T11:51:34;96220.44;;;12.10;100.00
11001;BME280;5553;48.506;8.870;2023-05-10T11:54:06;96220.88;;;12.07;100.00
11001;BME280;5553;48.506;8.870;2023-05-10T11:56:36;96222.06;;;12.11;100.00
11001;BME280;5553;48.506;8.870;2023-05-10T11:59:04;96234.50;;;12.11;100.00
11001;BME280;5553;48.506;8.870;2023-05-10T12:01:33;96230.16;;;12.29;100.00
11001;BME280;5553;48.506;8.870;2023-05-10T12:04:04;96228.06;;;12.45;100.00
11001;BME280;5553;48.506;8.870;2023-05-10T12:06:37;96225.38;;;12.58;100.00
11001;BME280;5553;48.506;8.870;2023-05-10T12:09:08;96240.94;;;12.79;100.00
11001;BME280;5553;48.506;8.870;2023-05-10T12:11:38;96231.78;;;12.82;100.00
11001;BME280;5553;48.506;8.870;2023-05-10T12:14:08;96216.94;;;12.74;100.00
11001;BME280;5553;48.506;8.870;2023-05-10T12:16:36;96212.88;;;12.72;100.00
11001;BME280;5553;48.506;8.870;2023-05-10T12:19:07;96217.28;;;12.85;100.00
11001;BME280;5553;48.506;8.870;2023-05-10T12:21:36;96207.94;;;12.82;100.00
11001;BME280;5553;48.506;8.870;2023-05-10T12:24:04;96206.25;;;12.88;100.00
11001;BME280;5553;48.506;8.870;2023-05-10T12:26:32;96189.66;;;12.74;100.00
11001;BME280;5553;48.506;8.870;2023-05-10T12:29:13;96198.13;;;12.89;100.00
11001;BME280;5553;48.506;8.870;2023-05-10T12:31:52;96207.28;;;13.18;100.00
11001;BME280;5553;48.506;8.870;2023-05-10T12:34:30;96210.31;;;13.28;100.00
11001;BME280;5553;48.506;8.870;2023-05-10T12:36:59;96206.06;;;13.21;100.00
11001;BME280;5553;48.506;8.870;2023-05-10T12:39:38;96198.25;;;13.33;100.00
11001;BME280;5553;48.506;8.870;2023-05-10T12:42:06;96192.88;;;13.39;100.00
11001;BME280;5553;48.506;8.870;2023-05-10T12:44:35;96201.00;;;13.69;100.00
11001;BME280;5553;48.506;8.870;2023-05-10T12:47:03;96180.34;;;13.28;100.00
11001;BME280;5553;48.506;8.870;2023-05-10T12:49:34;96168.41;;;13.44;100.00
11001;BME280;5553;48.506;8.870;2023-05-10T12:52:02;96187.75;;;13.69;100.00
11001;BME280;5553;48.506;8.870;2023-05-10T12:54:31;96192.28;;;13.62;100.00
11001;BME280;5553;48.506;8.870;2023-05-10T12:56:59;96194.34;;;13.60;100.00
11001;BME280;5553;48.506;8.870;2023-05-10T12:59:28;96199.94;;;13.70;100.00
11001;BME280;5553;48.506;8.870;2023-05-10T13:01:57;96194.19;;;13.55;100.00
11001;BME280;5553;48.506;8.870;2023-05-10T13:04:25;96195.34;;;13.84;100.00
11001;BME280;5553;48.506;8.870;2023-05-10T13:06:56;96204.44;;;13.95;100.00
11001;BME280;5553;48.506;8.870;2023-05-10T13:09:25;96194.41;;;14.15;100.00
11001;BME280;5553;48.506;8.870;2023-05-10T13:11:54;96173.88;;;13.67;100.00
11001;BME280;5553;48.506;8.870;2023-05-10T13:14:22;96192.53;;;13.61;100.00
11001;BME280;5553;48.506;8.870;2023-05-10T13:16:51;96203.50;;;13.64;100.00
11001;BME280;5553;48.506;8.870;2023-05-10T13:19:19;96214.38;;;13.99;100.00